sensor_id;sensor_type;location;lat;lon;timestamp;pressure;altitude;pressure_sealevel;temperature
20103;BMP180;10210;52.284;9.892;2022-07-18T00:01:56;101583.00;;;25.00
20103;BMP180;10210;52.284;9.892;2022-07-18T00:04:22;101587.00;;;25.00
20103;BMP180;10210;52.284;9.892;2022-07-18T00:06:48;101588.00;;;25.00
20103;BMP180;10210;52.284;9.892;2022-07-18T00:09:14;101584.00;;;25.00
20103;BMP180;10210;52.284;9.892;2022-07-18T00:11:40;101588.00;;;24.90
20103;BMP180;10210;52.284;9.892;2022-07-18T00:14:06;101587.00;;;24.90
20103;BMP180;10210;52.284;9.892;2022-07-18T00:16:31;101579.00;;;24.90
20103;BMP180;10210;52.284;9.892;2022-07-18T00:18:57;101588.00;;;24.90
20103;BMP180;10210;52.284;9.892;2022-07-18T00:21:25;101586.00;;;24.90
20103;BMP180;10210;52.284;9.892;2022-07-18T00:23:52;101585.00;;;24.90
20103;BMP180;10210;52.284;9.892;2022-07-18T00:26:17;101574.00;;;24.80
20103;BMP180;10210;52.284;9.892;2022-07-18T00:28:43;101578.00;;;24.80
20103;BMP180;10210;52.284;9.892;2022-07-18T00:31:09;101581.00;;;24.70
20103;BMP180;10210;52.284;9.892;2022-07-18T00:33:34;101584.00;;;24.60
20103;BMP180;10210;52.284;9.892;2022-07-18T00:36:00;101582.00;;;24.60
20103;BMP180;10210;52.284;9.892;2022-07-18T00:38:26;101572.00;;;24.50
20103;BMP180;10210;52.284;9.892;2022-07-18T00:40:52;101571.00;;;24.50
20103;BMP180;10210;52.284;9.892;2022-07-18T00:43:18;101568.00;;;24.40
20103;BMP180;10210;52.284;9.892;2022-07-18T00:45:45;101576.00;;;24.40
20103;BMP180;10210;52.284;9.892;2022-07-18T00:48:12;101577.00;;;24.30
20103;BMP180;10210;52.284;9.892;2022-07-18T00:50:40;101582.00;;;24.30
20103;BMP180;10210;52.284;9.892;2022-07-18T00:53:06;101571.00;;;24.30
20103;BMP180;10210;52.284;9.892;2022-07-18T00:55:33;101573.00;;;24.20
20103;BMP180;10210;52.284;9.892;2022-07-18T00:58:00;101567.00;;;24.20
20103;BMP180;10210;52.284;9.892;2022-07-18T01:00:27;101566.00;;;24.20
20103;BMP180;10210;52.284;9.892;2022-07-18T01:03:11;101569.00;;;24.20
20103;BMP180;10210;52.284;9.892;2022-07-18T01:05:36;101557.00;;;24.10
20103;BMP180;10210;52.284;9.892;2022-07-18T01:08:03;101564.00;;;24.10
20103;BMP180;10210;52.284;9.892;2022-07-18T01:10:28;101560.00;;;24.10
20103;BMP180;10210;52.284;9.892;2022-07-18T01:12:54;101554.00;;;24.00
20103;BMP180;10210;52.284;9.892;2022-07-18T01:15:20;101559.00;;;24.00
20103;BMP180;10210;52.284;9.892;2022-07-18T01:17:46;101562.00;;;24.00
20103;BMP180;10210;52.284;9.892;2022-07-18T01:20:12;101561.00;;;23.90
20103;BMP180;10210;52.284;9.892;2022-07-18T01:22:37;101569.00;;;23.90
20103;BMP180;10210;52.284;9.892;2022-07-18T01:25:07;101561.00;;;23.90
20103;BMP180;10210;52.284;9.892;2022-07-18T01:27:32;101564.00;;;23.90
20103;BMP180;10210;52.284;9.892;2022-07-18T01:29:58;101551.00;;;23.80
20103;BMP180;10210;52.284;9.892;2022-07-18T01:32:24;101566.00;;;23.80
20103;BMP180;10210;52.284;9.892;2022-07-18T01:34:50;101553.00;;;23.80
20103;BMP180;10210;52.284;9.892;2022-07-18T01:37:16;101552.00;;;23.80
20103;BMP180;10210;52.284;9.892;2022-07-18T01:39:44;101541.00;;;23.70
20103;BMP180;10210;52.284;9.892;2022-07-18T01:42:11;101545.00;;;23.60
20103;BMP180;10210;52.284;9.892;2022-07-18T01:44:38;101543.00;;;23.60
20103;BMP180;10210;52.284;9.892;2022-07-18T01:47:08;101545.00;;;23.50
20103;BMP180;10210;52.284;9.892;2022-07-18T01:49:34;101544.00;;;23.50
20103;BMP180;10210;52.284;9.892;2022-07-18T01:52:01;101551.00;;;23.50
20103;BMP180;10210;52.284;9.892;2022-07-18T01:54:30;101537.00;;;23.40
20103;BMP180;10210;52.284;9.892;2022-07-18T01:57:00;101538.00;;;23.40
20103;BMP180;10210;52.284;9.892;2022-07-18T01:59:27;101530.00;;;23.40
20103;BMP180;10210;52.284;9.892;2022-07-18T02:01:53;101536.00;;;23.40
20103;BMP180;10210;52.284;9.892;2022-07-18T02:04:19;101534.00;;;23.40
20103;BMP180;10210;52.284;9.892;2022-07-18T02:06:45;101531.00;;;23.40
20103;BMP180;10210;52.284;9.892;2022-07-18T02:09:11;101544.00;;;23.40
20103;BMP180;10210;52.284;9.892;2022-07-18T02:11:37;101540.00;;;23.40
20103;BMP180;10210;52.284;9.892;2022-07-18T02:14:04;101534.00;;;23.40
20103;BMP180;10210;52.284;9.892;2022-07-18T02:16:31;101531.00;;;23.40
20103;BMP180;10210;52.284;9.892;2022-07-18T02:18:57;101526.00;;;23.40
20103;BMP180;10210;52.284;9.892;2022-07-18T02:21:23;101525.00;;;23.30
20103;BMP180;10210;52.284;9.892;2022-07-18T02:23:49;101528.00;;;23.30
20103;BMP180;10210;52.284;9.892;2022-07-18T02:26:17;101523.00;;;23.30
20103;BMP180;10210;52.284;9.892;2022-07-18T02:28:43;101523.00;;;23.30
20103;BMP180;10210;52.284;9.892;2022-07-18T02:31:08;101520.00;;;23.20
20103;BMP180;10210;52.284;9.892;2022-07-18T02:33:37;101517.00;;;23.20
20103;BMP180;10210;52.284;9.892;2022-07-18T02:36:03;101518.00;;;23.20
20103;BMP180;10210;52.284;9.892;2022-07-18T02:38:28;101517.00;;;23.10
20103;BMP180;10210;52.284;9.892;2022-07-18T02:40:54;101512.00;;;23.10
20103;BMP180;10210;52.284;9.892;2022-07-18T02:43:20;101522.00;;;23.00
20103;BMP180;10210;52.284;9.892;2022-07-18T02:45:45;101520.00;;;23.00
20103;BMP180;10210;52.284;9.892;2022-07-18T02:48:11;101509.00;;;23.00
20103;BMP180;10210;52.284;9.892;2022-07-18T02:50:36;101511.00;;;22.90
20103;BMP180;10210;52.284;9.892;2022-07-18T02:53:02;101506.00;;;22.90
20103;BMP180;10210;52.284;9.892;2022-07-18T02:55:28;101503.00;;;22.90
20103;BMP180;10210;52.284;9.892;2022-07-18T02:57:53;101498.00;;;22.80
20103;BMP180;10210;52.284;9.892;2022-07-18T03:00:19;101507.00;;;22.80
20103;BMP180;10210;52.284;9.892;2022-07-18T03:02:45;101506.00;;;22.80
20103;BMP180;10210;52.284;9.892;2022-07-18T03:05:11;101511.00;;;22.80
20103;BMP180;10210;52.284;9.892;2022-07-18T03:07:38;101495.00;;;22.80
20103;BMP180;10210;52.284;9.892;2022-07-18T03:10:05;101498.00;;;22.70
20103;BMP180;10210;52.284;9.892;2022-07-18T03:12:32;101494.00;;;22.70
20103;BMP180;10210;52.284;9.892;2022-07-18T03:14:58;101492.00;;;22.70
20103;BMP180;10210;52.284;9.892;2022-07-18T03:17:25;101498.00;;;22.60
20103;BMP180;10210;52.284;9.892;2022-07-18T03:19:50;101494.00;;;22.60
20103;BMP180;10210;52.284;9.892;2022-07-18T03:22:16;101495.00;;;22.60
20103;BMP180;10210;52.284;9.892;2022-07-18T03:24:43;101509.00;;;22.60
20103;BMP180;10210;52.284;9.892;2022-07-18T03:27:08;101499.00;;;22.50
20103;BMP180;10210;52.284;9.892;2022-07-18T03:29:34;101503.00;;;22.60
20103;BMP180;10210;52.284;9.892;2022-07-18T03:32:00;101504.00;;;22.60
20103;BMP180;10210;52.284;9.892;2022-07-18T03:34:26;101501.00;;;22.50
20103;BMP180;10210;52.284;9.892;2022-07-18T03:36:52;101495.00;;;22.50
20103;BMP180;10210;52.284;9.892;2022-07-18T03:39:18;101500.00;;;22.50
20103;BMP180;10210;52.284;9.892;2022-07-18T03:41:44;101496.00;;;22.40
20103;BMP180;10210;52.284;9.892;2022-07-18T03:44:10;101498.00;;;22.40
20103;BMP180;10210;52.284;9.892;2022-07-18T03:46:35;101494.00;;;22.30
20103;BMP180;10210;52.284;9.892;2022-07-18T03:49:01;101498.00;;;22.30
20103;BMP180;10210;52.284;9.892;2022-07-18T03:51:28;101494.00;;;22.30
20103;BMP180;10210;52.284;9.892;2022-07-18T03:53:54;101494.00;;;22.30
20103;BMP180;10210;52.284;9.892;2022-07-18T03:56:20;101491.00;;;22.30
20103;BMP180;10210;52.284;9.892;2022-07-18T03:58:46;101477.00;;;22.30
20103;BMP180;10210;52.284;9.892;2022-07-18T04:01:11;101494.00;;;22.30
20103;BMP180;10210;52.284;9.892;2022-07-18T04:03:37;101492.00;;;22.30
20103;BMP180;10210;52.284;9.892;2022-07-18T04:06:03;101487.00;;;22.30
20103;BMP180;10210;52.284;9.892;2022-07-18T04:08:29;101488.00;;;22.20
20103;BMP180;10210;52.284;9.892;2022-07-18T04:10:54;101486.00;;;22.20
20103;BMP180;10210;52.284;9.892;2022-07-18T04:13:20;101483.00;;;22.20
20103;BMP180;10210;52.284;9.892;2022-07-18T04:15:46;101490.00;;;22.20
20103;BMP180;10210;52.284;9.892;2022-07-18T04:18:11;101483.00;;;22.20
20103;BMP180;10210;52.284;9.892;2022-07-18T04:20:38;101488.00;;;22.20
20103;BMP180;10210;52.284;9.892;2022-07-18T04:23:08;101480.00;;;22.10
20103;BMP180;10210;52.284;9.892;2022-07-18T04:25:41;101488.00;;;22.10
20103;BMP180;10210;52.284;9.892;2022-07-18T04:28:12;101482.00;;;22.10
20103;BMP180;10210;52.284;9.892;2022-07-18T04:30:40;101480.00;;;22.10
20103;BMP180;10210;52.284;9.892;2022-07-18T04:33:08;101483.00;;;22.00
20103;BMP180;10210;52.284;9.892;2022-07-18T04:35:35;101467.00;;;22.00
20103;BMP180;10210;52.284;9.892;2022-07-18T04:38:03;101451.00;;;22.00
20103;BMP180;10210;52.284;9.892;2022-07-18T04:40:29;101459.00;;;22.00
20103;BMP180;10210;52.284;9.892;2022-07-18T04:42:55;101459.00;;;22.00
20103;BMP180;10210;52.284;9.892;2022-07-18T04:45:20;101474.00;;;21.90
20103;BMP180;10210;52.284;9.892;2022-07-18T04:47:50;101470.00;;;21.90
20103;BMP180;10210;52.284;9.892;2022-07-18T04:50:17;101469.00;;;21.90
20103;BMP180;10210;52.284;9.892;2022-07-18T04:52:45;101465.00;;;21.90
20103;BMP180;10210;52.284;9.892;2022-07-18T04:55:13;101478.00;;;22.00
20103;BMP180;10210;52.284;9.892;2022-07-18T04:57:40;101478.00;;;22.00
20103;BMP180;10210;52.284;9.892;2022-07-18T05:00:10;101477.00;;;22.00
20103;BMP180;10210;52.284;9.892;2022-07-18T05:02:43;101466.00;;;22.00
20103;BMP180;10210;52.284;9.892;2022-07-18T05:05:12;101460.00;;;22.00
20103;BMP180;10210;52.284;9.892;2022-07-18T05:07:40;101468.00;;;22.00
20103;BMP180;10210;52.284;9.892;2022-07-18T05:10:10;101473.00;;;22.00
20103;BMP180;10210;52.284;9.892;2022-07-18T05:12:40;101476.00;;;22.00
20103;BMP180;10210;52.284;9.892;2022-07-18T05:15:09;101474.00;;;22.10
20103;BMP180;10210;52.284;9.892;2022-07-18T05:17:36;101468.00;;;22.10
20103;BMP180;10210;52.284;9.892;2022-07-18T05:20:07;101467.00;;;22.20
20103;BMP180;10210;52.284;9.892;2022-07-18T05:22:34;101475.00;;;22.20
20103;BMP180;10210;52.284;9.892;2022-07-18T05:25:01;101471.00;;;22.20
20103;BMP180;10210;52.284;9.892;2022-07-18T05:27:28;101476.00;;;22.20
20103;BMP180;10210;52.284;9.892;2022-07-18T05:29:54;101466.00;;;22.20
20103;BMP180;10210;52.284;9.892;2022-07-18T05:32:20;101454.00;;;22.20
20103;BMP180;10210;52.284;9.892;2022-07-18T05:34:45;101456.00;;;22.20
20103;BMP180;10210;52.284;9.892;2022-07-18T05:37:11;101451.00;;;22.20
20103;BMP180;10210;52.284;9.892;2022-07-18T05:39:37;101450.00;;;22.30
20103;BMP180;10210;52.284;9.892;2022-07-18T05:42:03;101456.00;;;22.30
20103;BMP180;10210;52.284;9.892;2022-07-18T05:44:29;101459.00;;;22.40
20103;BMP180;10210;52.284;9.892;2022-07-18T05:46:55;101459.00;;;22.40
20103;BMP180;10210;52.284;9.892;2022-07-18T05:49:20;101461.00;;;22.50
20103;BMP180;10210;52.284;9.892;2022-07-18T05:51:46;101465.00;;;22.50
20103;BMP180;10210;52.284;9.892;2022-07-18T05:54:12;101470.00;;;22.60
20103;BMP180;10210;52.284;9.892;2022-07-18T05:56:38;101478.00;;;22.70
20103;BMP180;10210;52.284;9.892;2022-07-18T05:59:03;101474.00;;;22.70
20103;BMP180;10210;52.284;9.892;2022-07-18T06:01:30;101469.00;;;22.80
20103;BMP180;10210;52.284;9.892;2022-07-18T06:03:55;101479.00;;;22.80
20103;BMP180;10210;52.284;9.892;2022-07-18T06:06:21;101471.00;;;22.90
20103;BMP180;10210;52.284;9.892;2022-07-18T06:08:47;101466.00;;;23.00
20103;BMP180;10210;52.284;9.892;2022-07-18T06:11:12;101459.00;;;23.00
20103;BMP180;10210;52.284;9.892;2022-07-18T06:13:39;101454.00;;;23.10
20103;BMP180;10210;52.284;9.892;2022-07-18T06:16:06;101460.00;;;23.10
20103;BMP180;10210;52.284;9.892;2022-07-18T06:18:33;101458.00;;;23.20
20103;BMP180;10210;52.284;9.892;2022-07-18T06:21:03;101457.00;;;23.20
20103;BMP180;10210;52.284;9.892;2022-07-18T06:23:29;101453.00;;;23.30
20103;BMP180;10210;52.284;9.892;2022-07-18T06:25:58;101435.00;;;23.30
20103;BMP180;10210;52.284;9.892;2022-07-18T06:28:24;101444.00;;;23.40
20103;BMP180;10210;52.284;9.892;2022-07-18T06:30:54;101437.00;;;23.50
20103;BMP180;10210;52.284;9.892;2022-07-18T06:33:21;101440.00;;;23.60
20103;BMP180;10210;52.284;9.892;2022-07-18T06:35:47;101440.00;;;23.70
20103;BMP180;10210;52.284;9.892;2022-07-18T06:38:14;101452.00;;;23.70
20103;BMP180;10210;52.284;9.892;2022-07-18T06:40:41;101440.00;;;23.80
20103;BMP180;10210;52.284;9.892;2022-07-18T06:43:07;101447.00;;;23.90
20103;BMP180;10210;52.284;9.892;2022-07-18T06:45:33;101441.00;;;24.00
20103;BMP180;10210;52.284;9.892;2022-07-18T06:47:59;101436.00;;;24.10
20103;BMP180;10210;52.284;9.892;2022-07-18T06:50:25;101441.00;;;24.10
20103;BMP180;10210;52.284;9.892;2022-07-18T06:52:50;101430.00;;;24.20
20103;BMP180;10210;52.284;9.892;2022-07-18T06:55:16;101435.00;;;24.20
20103;BMP180;10210;52.284;9.892;2022-07-18T06:57:43;101441.00;;;24.30
20103;BMP180;10210;52.284;9.892;2022-07-18T07:00:12;101444.00;;;24.40
20103;BMP180;10210;52.284;9.892;2022-07-18T07:02:48;101438.00;;;24.50
20103;BMP180;10210;52.284;9.892;2022-07-18T07:05:17;101432.00;;;24.70
20103;BMP180;10210;52.284;9.892;2022-07-18T07:07:43;101438.00;;;24.80
20103;BMP180;10210;52.284;9.892;2022-07-18T07:10:10;101432.00;;;24.90
20103;BMP180;10210;52.284;9.892;2022-07-18T07:12:48;101440.00;;;25.10
20103;BMP180;10210;52.284;9.892;2022-07-18T07:15:18;101438.00;;;25.30
20103;BMP180;10210;52.284;9.892;2022-07-18T07:17:44;101431.00;;;25.60
20103;BMP180;10210;52.284;9.892;2022-07-18T07:20:11;101431.00;;;25.80
20103;BMP180;10210;52.284;9.892;2022-07-18T07:22:49;101427.00;;;26.00
20103;BMP180;10210;52.284;9.892;2022-07-18T07:25:16;101426.00;;;26.20
20103;BMP180;10210;52.284;9.892;2022-07-18T07:27:42;101439.00;;;26.50
20103;BMP180;10210;52.284;9.892;2022-07-18T07:30:10;101422.00;;;26.80
20103;BMP180;10210;52.284;9.892;2022-07-18T07:32:41;101422.00;;;27.20
20103;BMP180;10210;52.284;9.892;2022-07-18T07:35:09;101426.00;;;27.70
20103;BMP180;10210;52.284;9.892;2022-07-18T07:37:41;101427.00;;;28.20
20103;BMP180;10210;52.284;9.892;2022-07-18T07:40:08;101418.00;;;28.70
20103;BMP180;10210;52.284;9.892;2022-07-18T07:42:35;101434.00;;;29.20
20103;BMP180;10210;52.284;9.892;2022-07-18T07:45:00;101437.00;;;29.50
20103;BMP180;10210;52.284;9.892;2022-07-18T07:47:27;101424.00;;;29.80
20103;BMP180;10210;52.284;9.892;2022-07-18T07:49:55;101429.00;;;29.90
20103;BMP180;10210;52.284;9.892;2022-07-18T07:52:21;101435.00;;;30.00
20103;BMP180;10210;52.284;9.892;2022-07-18T07:54:48;101441.00;;;30.20
20103;BMP180;10210;52.284;9.892;2022-07-18T07:57:14;101433.00;;;30.40
20103;BMP180;10210;52.284;9.892;2022-07-18T07:59:39;101430.00;;;30.70
20103;BMP180;10210;52.284;9.892;2022-07-18T08:02:05;101434.00;;;31.00
20103;BMP180;10210;52.284;9.892;2022-07-18T08:04:31;101440.00;;;31.20
20103;BMP180;10210;52.284;9.892;2022-07-18T08:06:56;101431.00;;;31.30
20103;BMP180;10210;52.284;9.892;2022-07-18T08:09:22;101438.00;;;31.50
20103;BMP180;10210;52.284;9.892;2022-07-18T08:11:48;101441.00;;;31.70
20103;BMP180;10210;52.284;9.892;2022-07-18T08:14:14;101441.00;;;32.00
20103;BMP180;10210;52.284;9.892;2022-07-18T08:16:39;101430.00;;;32.30
20103;BMP180;10210;52.284;9.892;2022-07-18T08:19:05;101424.00;;;32.60
20103;BMP180;10210;52.284;9.892;2022-07-18T08:21:31;101435.00;;;32.90
20103;BMP180;10210;52.284;9.892;2022-07-18T08:23:57;101434.00;;;33.10
20103;BMP180;10210;52.284;9.892;2022-07-18T08:26:23;101428.00;;;33.30
20103;BMP180;10210;52.284;9.892;2022-07-18T08:28:48;101430.00;;;33.50
20103;BMP180;10210;52.284;9.892;2022-07-18T08:31:14;101430.00;;;33.70
20103;BMP180;10210;52.284;9.892;2022-07-18T08:33:40;101434.00;;;33.80
20103;BMP180;10210;52.284;9.892;2022-07-18T08:36:06;101428.00;;;33.90
20103;BMP180;10210;52.284;9.892;2022-07-18T08:38:33;101429.00;;;34.10
20103;BMP180;10210;52.284;9.892;2022-07-18T08:41:01;101431.00;;;34.30
20103;BMP180;10210;52.284;9.892;2022-07-18T08:43:28;101428.00;;;34.30
20103;BMP180;10210;52.284;9.892;2022-07-18T08:45:57;101428.00;;;34.40
20103;BMP180;10210;52.284;9.892;2022-07-18T08:48:25;101414.00;;;34.50
20103;BMP180;10210;52.284;9.892;2022-07-18T08:50:51;101422.00;;;34.60
20103;BMP180;10210;52.284;9.892;2022-07-18T08:53:18;101415.00;;;34.70
20103;BMP180;10210;52.284;9.892;2022-07-18T08:55:45;101421.00;;;34.70
20103;BMP180;10210;52.284;9.892;2022-07-18T08:58:11;101426.00;;;34.80
20103;BMP180;10210;52.284;9.892;2022-07-18T09:00:38;101417.00;;;34.90
20103;BMP180;10210;52.284;9.892;2022-07-18T09:03:04;101422.00;;;35.00
20103;BMP180;10210;52.284;9.892;2022-07-18T09:05:32;101420.00;;;35.00
20103;BMP180;10210;52.284;9.892;2022-07-18T09:08:18;101431.00;;;34.90
20103;BMP180;10210;52.284;9.892;2022-07-18T09:10:58;101426.00;;;34.90
20103;BMP180;10210;52.284;9.892;2022-07-18T09:18:41;101430.00;;;34.90
20103;BMP180;10210;52.284;9.892;2022-07-18T09:21:10;101423.00;;;34.90
20103;BMP180;10210;52.284;9.892;2022-07-18T09:23:40;101426.00;;;34.90
20103;BMP180;10210;52.284;9.892;2022-07-18T09:26:07;101422.00;;;35.00
20103;BMP180;10210;52.284;9.892;2022-07-18T09:28:53;101421.00;;;35.00
20103;BMP180;10210;52.284;9.892;2022-07-18T09:31:25;101413.00;;;35.00
20103;BMP180;10210;52.284;9.892;2022-07-18T09:33:57;101414.00;;;35.10
20103;BMP180;10210;52.284;9.892;2022-07-18T09:36:23;101414.00;;;35.10
20103;BMP180;10210;52.284;9.892;2022-07-18T09:38:49;101405.00;;;35.10
20103;BMP180;10210;52.284;9.892;2022-07-18T09:41:16;101405.00;;;35.20
20103;BMP180;10210;52.284;9.892;2022-07-18T09:43:42;101397.00;;;35.20
20103;BMP180;10210;52.284;9.892;2022-07-18T09:46:08;101400.00;;;35.10
20103;BMP180;10210;52.284;9.892;2022-07-18T09:48:34;101400.00;;;35.00
20103;BMP180;10210;52.284;9.892;2022-07-18T09:51:03;101400.00;;;35.00
20103;BMP180;10210;52.284;9.892;2022-07-18T09:53:43;101392.00;;;34.90
20103;BMP180;10210;52.284;9.892;2022-07-18T09:56:14;101399.00;;;34.90
20103;BMP180;10210;52.284;9.892;2022-07-18T09:58:55;101395.00;;;34.90
20103;BMP180;10210;52.284;9.892;2022-07-18T10:01:22;101391.00;;;34.90
20103;BMP180;10210;52.284;9.892;2022-07-18T10:03:49;101386.00;;;34.80
20103;BMP180;10210;52.284;9.892;2022-07-18T10:06:15;101383.00;;;34.80
20103;BMP180;10210;52.284;9.892;2022-07-18T10:08:42;101382.00;;;34.80
20103;BMP180;10210;52.284;9.892;2022-07-18T10:11:08;101375.00;;;34.70
20103;BMP180;10210;52.284;9.892;2022-07-18T10:13:36;101371.00;;;34.70
20103;BMP180;10210;52.284;9.892;2022-07-18T10:16:03;101378.00;;;34.60
20103;BMP180;10210;52.284;9.892;2022-07-18T10:18:34;101384.00;;;34.60
20103;BMP180;10210;52.284;9.892;2022-07-18T10:21:06;101381.00;;;34.60
20103;BMP180;10210;52.284;9.892;2022-07-18T10:23:44;101372.00;;;34.50
20103;BMP180;10210;52.284;9.892;2022-07-18T10:26:21;101370.00;;;34.40
20103;BMP180;10210;52.284;9.892;2022-07-18T10:31:37;101373.00;;;34.40
20103;BMP180;10210;52.284;9.892;2022-07-18T10:57:39;101356.00;;;34.40
20103;BMP180;10210;52.284;9.892;2022-07-18T11:00:14;101357.00;;;34.30
20103;BMP180;10210;52.284;9.892;2022-07-18T11:03:27;101350.00;;;34.40
20103;BMP180;10210;52.284;9.892;2022-07-18T11:05:32;101361.00;;;34.40
20103;BMP180;10210;52.284;9.892;2022-07-18T11:16:16;101329.00;;;34.50
20103;BMP180;10210;52.284;9.892;2022-07-18T11:24:08;101320.00;;;34.60
20103;BMP180;10210;52.284;9.892;2022-07-18T11:26:37;101317.00;;;34.70
20103;BMP180;10210;52.284;9.892;2022-07-18T11:29:09;101307.00;;;34.80
20103;BMP180;10210;52.284;9.892;2022-07-18T11:31:53;101310.00;;;34.80
20103;BMP180;10210;52.284;9.892;2022-07-18T11:34:21;101308.00;;;34.80
20103;BMP180;10210;52.284;9.892;2022-07-18T11:36:48;101311.00;;;34.90
20103;BMP180;10210;52.284;9.892;2022-07-18T11:39:16;101310.00;;;34.90
20103;BMP180;10210;52.284;9.892;2022-07-18T11:41:53;101313.00;;;34.90
20103;BMP180;10210;52.284;9.892;2022-07-18T11:44:20;101314.00;;;34.90
20103;BMP180;10210;52.284;9.892;2022-07-18T11:47:08;101305.00;;;34.90
20103;BMP180;10210;52.284;9.892;2022-07-18T11:49:37;101315.00;;;35.00
20103;BMP180;10210;52.284;9.892;2022-07-18T11:52:05;101308.00;;;35.00
20103;BMP180;10210;52.284;9.892;2022-07-18T11:54:31;101307.00;;;35.10
20103;BMP180;10210;52.284;9.892;2022-07-18T11:56:58;101302.00;;;35.10
20103;BMP180;10210;52.284;9.892;2022-07-18T11:59:42;101294.00;;;35.10
20103;BMP180;10210;52.284;9.892;2022-07-18T12:02:09;101290.00;;;35.20
20103;BMP180;10210;52.284;9.892;2022-07-18T12:04:36;101291.00;;;35.20
20103;BMP180;10210;52.284;9.892;2022-07-18T12:07:34;101287.00;;;35.10
20103;BMP180;10210;52.284;9.892;2022-07-18T12:10:15;101287.00;;;35.20
20103;BMP180;10210;52.284;9.892;2022-07-18T12:12:41;101276.00;;;35.30
20103;BMP180;10210;52.284;9.892;2022-07-18T12:15:08;101289.00;;;35.40
20103;BMP180;10210;52.284;9.892;2022-07-18T12:17:46;101291.00;;;35.40
20103;BMP180;10210;52.284;9.892;2022-07-18T12:20:16;101295.00;;;35.50
20103;BMP180;10210;52.284;9.892;2022-07-18T12:23:09;101291.00;;;35.40
20103;BMP180;10210;52.284;9.892;2022-07-18T12:25:55;101288.00;;;35.40
20103;BMP180;10210;52.284;9.892;2022-07-18T12:28:25;101284.00;;;35.50
20103;BMP180;10210;52.284;9.892;2022-07-18T12:30:51;101289.00;;;35.50
20103;BMP180;10210;52.284;9.892;2022-07-18T12:33:18;101288.00;;;35.50
20103;BMP180;10210;52.284;9.892;2022-07-18T12:35:44;101288.00;;;35.60
20103;BMP180;10210;52.284;9.892;2022-07-18T12:38:17;101283.00;;;35.60
20103;BMP180;10210;52.284;9.892;2022-07-18T12:40:54;101283.00;;;35.60
20103;BMP180;10210;52.284;9.892;2022-07-18T12:43:37;101275.00;;;35.60
20103;BMP180;10210;52.284;9.892;2022-07-18T12:46:07;101268.00;;;35.60
20103;BMP180;10210;52.284;9.892;2022-07-18T12:48:35;101269.00;;;35.70
20103;BMP180;10210;52.284;9.892;2022-07-18T12:51:10;101260.00;;;35.70
20103;BMP180;10210;52.284;9.892;2022-07-18T12:53:39;101260.00;;;35.80
20103;BMP180;10210;52.284;9.892;2022-07-18T12:56:06;101257.00;;;35.90
20103;BMP180;10210;52.284;9.892;2022-07-18T12:58:32;101257.00;;;36.00
20103;BMP180;10210;52.284;9.892;2022-07-18T13:00:58;101258.00;;;36.20
20103;BMP180;10210;52.284;9.892;2022-07-18T13:03:24;101255.00;;;36.30
20103;BMP180;10210;52.284;9.892;2022-07-18T13:05:49;101244.00;;;36.40
20103;BMP180;10210;52.284;9.892;2022-07-18T13:08:15;101245.00;;;36.40
20103;BMP180;10210;52.284;9.892;2022-07-18T13:10:43;101233.00;;;36.50
20103;BMP180;10210;52.284;9.892;2022-07-18T13:13:09;101236.00;;;36.60
20103;BMP180;10210;52.284;9.892;2022-07-18T13:15:36;101231.00;;;36.60
20103;BMP180;10210;52.284;9.892;2022-07-18T13:18:04;101228.00;;;36.70
20103;BMP180;10210;52.284;9.892;2022-07-18T13:20:30;101227.00;;;36.80
20103;BMP180;10210;52.284;9.892;2022-07-18T13:22:56;101227.00;;;36.90
20103;BMP180;10210;52.284;9.892;2022-07-18T13:25:22;101227.00;;;37.00
20103;BMP180;10210;52.284;9.892;2022-07-18T13:27:49;101224.00;;;37.00
20103;BMP180;10210;52.284;9.892;2022-07-18T13:30:14;101225.00;;;37.10
20103;BMP180;10210;52.284;9.892;2022-07-18T13:32:40;101218.00;;;37.20
20103;BMP180;10210;52.284;9.892;2022-07-18T13:35:10;101215.00;;;37.30
20103;BMP180;10210;52.284;9.892;2022-07-18T13:37:36;101207.00;;;37.30
20103;BMP180;10210;52.284;9.892;2022-07-18T13:40:02;101220.00;;;37.30
20103;BMP180;10210;52.284;9.892;2022-07-18T13:42:28;101204.00;;;37.30
20103;BMP180;10210;52.284;9.892;2022-07-18T13:44:54;101195.00;;;37.30
20103;BMP180;10210;52.284;9.892;2022-07-18T13:47:19;101205.00;;;37.40
20103;BMP180;10210;52.284;9.892;2022-07-18T13:49:45;101198.00;;;37.40
20103;BMP180;10210;52.284;9.892;2022-07-18T13:52:12;101200.00;;;37.40
20103;BMP180;10210;52.284;9.892;2022-07-18T13:54:38;101196.00;;;37.40
20103;BMP180;10210;52.284;9.892;2022-07-18T13:57:03;101198.00;;;37.40
20103;BMP180;10210;52.284;9.892;2022-07-18T13:59:29;101191.00;;;37.40
20103;BMP180;10210;52.284;9.892;2022-07-18T14:01:54;101200.00;;;37.40
20103;BMP180;10210;52.284;9.892;2022-07-18T14:04:21;101192.00;;;37.40
20103;BMP180;10210;52.284;9.892;2022-07-18T14:06:47;101197.00;;;37.40
20103;BMP180;10210;52.284;9.892;2022-07-18T14:09:13;101192.00;;;37.50
20103;BMP180;10210;52.284;9.892;2022-07-18T14:11:40;101193.00;;;37.50
20103;BMP180;10210;52.284;9.892;2022-07-18T14:14:05;101188.00;;;37.60
20103;BMP180;10210;52.284;9.892;2022-07-18T14:16:32;101189.00;;;37.60
20103;BMP180;10210;52.284;9.892;2022-07-18T14:18:58;101181.00;;;37.70
20103;BMP180;10210;52.284;9.892;2022-07-18T14:21:25;101182.00;;;37.90
20103;BMP180;10210;52.284;9.892;2022-07-18T14:23:50;101172.00;;;37.90
20103;BMP180;10210;52.284;9.892;2022-07-18T14:26:16;101173.00;;;38.00
20103;BMP180;10210;52.284;9.892;2022-07-18T14:28:42;101175.00;;;38.00
20103;BMP180;10210;52.284;9.892;2022-07-18T14:31:08;101173.00;;;38.10
20103;BMP180;10210;52.284;9.892;2022-07-18T14:33:33;101180.00;;;38.10
20103;BMP180;10210;52.284;9.892;2022-07-18T14:35:59;101174.00;;;38.20
20103;BMP180;10210;52.284;9.892;2022-07-18T14:38:25;101175.00;;;38.20
20103;BMP180;10210;52.284;9.892;2022-07-18T14:40:50;101164.00;;;38.20
20103;BMP180;10210;52.284;9.892;2022-07-18T14:43:16;101160.00;;;38.20
20103;BMP180;10210;52.284;9.892;2022-07-18T14:45:42;101166.00;;;38.20